Time;durP1;ratioP1;P1;durP2;ratioP2;P2;SDS_P1;SDS_P2;PMS_P1;PMS_P2;Temp;Humidity;BMP_temperature;BMP_pressure;BME280_temperature;BME280_humidity;BME280_pressure;Samples;Min_cycle;Max_cycle;Signal;HPM_P1;HPM_P2
2022/09/17 08:39:13;;;;;;;1.43;0.40;;;13.90;99.90;;;;;;6206414;22;20212;-70
2022/09/17 08:41:54;;;;;;;5.00;0.50;;;13.80;99.90;;;;;;6216471;23;20687;-67
2022/09/17 08:44:27;;;;;;;3.03;0.40;;;13.90;99.90;;;;;;6216232;23;20187;-67
2022/09/17 08:47:00;;;;;;;2.57;0.57;;;13.90;99.90;;;;;;6215200;23;20184;-70
2022/09/17 08:49:32;;;;;;;1.10;0.43;;;13.90;99.90;;;;;;6216385;23;20207;-67
2022/09/17 08:52:15;;;;;;;4.50;0.47;;;14.10;99.90;;;;;;6216586;23;20238;-67
2022/09/17 08:54:49;;;;;;;2.07;0.60;;;14.30;99.90;;;;;;6215870;23;20664;-68
2022/09/17 08:57:26;;;;;;;2.20;0.60;;;14.50;99.90;;;;;;6216050;23;20183;-73
2022/09/17 09:00:00;;;;;;;2.03;0.60;;;14.80;99.90;;;;;;6215863;23;20176;-67
2022/09/17 09:02:42;;;;;;;3.53;0.50;;;15.40;99.90;;;;;;6215943;23;20263;-67
2022/09/17 09:05:15;;;;;;;3.40;0.60;;;15.80;99.90;;;;;;6215258;23;20207;-67
2022/09/17 09:07:46;;;;;;;2.67;0.50;;;16.20;99.90;;;;;;6215423;23;20181;-70
2022/09/17 09:10:21;;;;;;;3.63;0.63;;;16.40;99.90;;;;;;6215470;23;20699;-71
2022/09/17 09:12:51;;;;;;;1.43;0.60;;;16.30;99.90;;;;;;6216201;23;20175;-69
2022/09/17 09:15:34;;;;;;;2.10;0.60;;;16.20;99.90;;;;;;6215706;23;20210;-74
2022/09/17 09:18:09;;;;;;;2.47;0.50;;;15.90;99.90;;;;;;6215844;23;20227;-73
2022/09/17 09:20:45;;;;;;;4.63;0.50;;;15.70;99.90;;;;;;6215998;23;20186;-71
2022/09/17 09:23:18;;;;;;;2.47;0.50;;;15.30;99.90;;;;;;6216503;23;20234;-74
2022/09/17 09:25:54;;;;;;;1.50;0.50;;;15.10;99.90;;;;;;6216038;23;20197;-71
2022/09/17 09:28:36;;;;;;;3.93;0.47;;;15.00;99.90;;;;;;6215965;23;20262;-73
2022/09/17 09:31:15;;;;;;;1.80;0.60;;;14.90;99.90;;;;;;6215911;23;20678;-70
2022/09/17 09:33:45;;;;;;;2.83;0.70;;;14.80;99.90;;;;;;6215843;23;20180;-71
2022/09/17 09:36:15;;;;;;;2.40;0.60;;;15.00;99.90;;;;;;6215649;23;20200;-72
2022/09/17 09:38:48;;;;;;;3.17;0.40;;;14.90;99.90;;;;;;6215785;23;20184;-70
2022/09/17 09:41:23;;;;;;;4.10;0.50;;;14.80;99.90;;;;;;6217230;23;20206;-77
2022/09/17 09:43:57;;;;;;;2.53;0.60;;;15.10;99.90;;;;;;6217592;23;20180;-75
2022/09/17 09:46:38;;;;;;;3.83;0.50;;;15.20;99.90;;;;;;6215484;23;20700;-75
2022/09/17 09:49:16;;;;;;;1.80;0.50;;;15.50;99.90;;;;;;6216000;23;20184;-70
2022/09/17 09:52:00;;;;;;;1.07;0.40;;;15.70;99.90;;;;;;6215471;23;20210;-73
2022/09/17 09:54:37;;;;;;;2.77;0.40;;;15.80;99.90;;;;;;6215850;23;20176;-72
2022/09/17 09:57:09;;;;;;;2.07;0.43;;;15.70;99.90;;;;;;6215810;23;20194;-72
2022/09/17 09:59:36;;;;;;;2.73;0.40;;;15.50;99.90;;;;;;6215947;23;20183;-72
2022/09/17 10:02:04;;;;;;;0.90;0.27;;;15.40;99.90;;;;;;6215570;23;20185;-72
2022/09/17 10:04:31;;;;;;;2.47;0.30;;;15.50;99.90;;;;;;6215162;23;20789;-73
2022/09/17 10:07:02;;;;;;;0.53;0.10;;;15.60;99.90;;;;;;6215352;23;20645;-70
2022/09/17 10:09:31;;;;;;;0.57;0.23;;;15.80;99.90;;;;;;6209097;23;20184;-77
2022/09/17 10:12:06;;;;;;;1.50;1.07;;;15.90;99.90;;;;;;6212566;23;20204;-75
2022/09/17 10:14:34;;;;;;;0.87;0.20;;;15.70;99.90;;;;;;6213790;23;20206;-74
2022/09/17 10:17:18;;;;;;;1.90;0.50;;;15.50;99.90;;;;;;6213705;23;20184;-72
2022/09/17 10:19:47;;;;;;;1.87;0.27;;;15.50;99.90;;;;;;6216827;23;20178;-81
2022/09/17 10:22:25;;;;;;;2.60;0.30;;;15.70;99.90;;;;;;6216526;23;20181;-73
2022/09/17 10:24:54;;;;;;;1.77;0.20;;;15.90;99.90;;;;;;6215425;23;20200;-77
2022/09/17 10:27:24;;;;;;;0.90;0.30;;;16.20;99.90;;;;;;6214018;23;20540;-73
2022/09/17 10:29:56;;;;;;;0.73;0.20;;;16.20;99.90;;;;;;6213653;23;20177;-74
2022/09/17 10:32:23;;;;;;;2.50;0.30;;;15.90;99.90;;;;;;6214694;23;20184;-73
2022/09/17 10:35:03;;;;;;;1.70;0.30;;;15.60;99.90;;;;;;6216114;23;20279;-78
2022/09/17 10:37:35;;;;;;;0.50;0.30;;;15.40;99.90;;;;;;6214827;23;20254;-76
2022/09/17 10:40:22;;;;;;;0.30;0.20;;;15.40;99.90;;;;;;6213260;23;20183;-66
2022/09/17 10:43:13;;;;;;;2.80;0.40;;;15.30;99.90;;;;;;6214940;23;20176;-67
2022/09/17 10:45:43;;;;;;;0.47;0.30;;;15.20;99.90;;;;;;6215284;23;20287;-69
2022/09/17 10:48:15;;;;;;;0.73;0.20;;;15.40;99.90;;;;;;6215646;23;20505;-67
2022/09/17 10:50:48;;;;;;;1.33;0.33;;;15.60;99.90;;;;;;6215116;23;20208;-71
2022/09/17 10:53:17;;;;;;;2.10;0.30;;;15.80;99.90;;;;;;6214932;23;20180;-70
2022/09/17 10:55:48;;;;;;;0.60;0.37;;;16.10;99.90;;;;;;6215313;23;20207;-69
2022/09/17 10:58:32;;;;;;;5.30;1.87;;;16.30;99.90;;;;;;6214699;23;20176;-67
2022/09/17 11:01:10;;;;;;;1.80;0.37;;;16.30;99.90;;;;;;6214932;23;20699;-70
2022/09/17 11:03:49;;;;;;;0.97;0.47;;;16.20;99.90;;;;;;6215081;23;20180;-74
2022/09/17 11:06:36;;;;;;;2.57;0.40;;;15.90;99.90;;;;;;6215260;23;20283;-68
2022/09/17 11:09:15;;;;;;;2.33;0.40;;;15.90;99.90;;;;;;6214928;23;20182;-69
2022/09/17 11:11:55;;;;;;;1.20;0.30;;;15.70;99.90;;;;;;6215098;23;20257;-71
2022/09/17 11:14:40;;;;;;;1.40;0.30;;;15.70;99.90;;;;;;6214927;23;20187;-66
2022/09/17 11:17:13;;;;;;;1.33;0.50;;;16.00;99.90;;;;;;6215060;23;20235;-71
2022/09/17 11:19:48;;;;;;;1.40;0.50;;;16.00;99.90;;;;;;6215233;23;20183;-66
2022/09/17 11:22:23;;;;;;;0.87;0.40;;;15.90;99.90;;;;;;6215480;23;20262;-71
2022/09/17 11:25:15;;;;;;;1.43;0.20;;;15.90;99.90;;;;;;6214713;23;20668;-68
2022/09/17 11:27:51;;;;;;;2.30;0.30;;;15.50;99.90;;;;;;6199205;23;20177;-67
2022/09/17 11:30:22;;;;;;;1.20;0.30;;;15.30;99.90;;;;;;6214983;23;20177;-67
2022/09/17 11:33:12;;;;;;;2.27;0.30;;;14.90;99.90;;;;;;6215336;23;20187;-69
2022/09/17 11:35:45;;;;;;;2.20;0.43;;;14.60;99.90;;;;;;6215145;23;20196;-67
2022/09/17 11:38:18;;;;;;;3.43;0.30;;;14.40;99.90;;;;;;6214614;23;20641;-67
2022/09/17 11:40:49;;;;;;;3.30;0.30;;;14.50;99.90;;;;;;6215601;23;20191;-67
2022/09/17 11:43:24;;;;;;;0.30;0.20;;;14.50;99.90;;;;;;6217225;23;20180;-67
2022/09/17 11:46:00;;;;;;;0.30;0.20;;;14.50;99.90;;;;;;6217397;23;20218;-69
2022/09/17 11:48:33;;;;;;;0.83;0.23;;;14.70;99.90;;;;;;6217434;23;20180;-73
2022/09/17 11:51:07;;;;;;;1.57;0.30;;;14.80;99.90;;;;;;6217299;23;20207;-68
2022/09/17 11:53:39;;;;;;;2.87;0.40;;;15.00;99.90;;;;;;6216936;23;20617;-75
2022/09/17 11:56:16;;;;;;;1.67;0.40;;;15.30;99.90;;;;;;6217118;23;20196;-70
2022/09/17 11:58:48;;;;;;;2.20;0.30;;;15.40;99.90;;;;;;6217138;23;20180;-66
2022/09/17 12:01:21;;;;;;;2.83;0.40;;;15.60;99.90;;;;;;6216657;23;20215;-74
2022/09/17 12:03:53;;;;;;;1.53;0.50;;;15.80;99.90;;;;;;6216789;23;20181;-74
2022/09/17 12:06:25;;;;;;;1.77;0.30;;;15.90;99.90;;;;;;6216759;23;20197;-77
2022/09/17 12:08:59;;;;;;;3.47;0.70;;;16.20;99.90;;;;;;6216277;23;20177;-67
2022/09/17 12:11:33;;;;;;;2.73;0.47;;;16.40;99.90;;;;;;6216638;23;20254;-68
2022/09/17 12:14:05;;;;;;;0.93;0.40;;;16.30;99.90;;;;;;6217278;23;20175;-67
2022/09/17 12:16:38;;;;;;;1.97;0.50;;;16.00;99.90;;;;;;6216299;23;20691;-68
2022/09/17 12:19:10;;;;;;;2.90;0.30;;;16.00;99.90;;;;;;6217223;23;20177;-73
2022/09/17 12:21:41;;;;;;;1.87;0.50;;;15.90;99.90;;;;;;6216870;23;20190;-67
2022/09/17 12:24:15;;;;;;;3.17;0.63;;;15.70;99.90;;;;;;6217162;23;20537;-67
2022/09/17 12:27:18;;;;;;;2.57;0.30;;;15.60;99.90;;;;;;6218194;23;20207;-67
2022/09/17 12:30:13;;;;;;;1.10;0.40;;;15.50;99.90;;;;;;6198109;23;20180;-66
2022/09/17 12:33:07;;;;;;;1.93;0.57;;;15.40;99.90;;;;;;6216644;23;20215;-66
2022/09/17 12:35:59;;;;;;;3.03;0.70;;;15.40;99.90;;;;;;6216286;23;20200;-68
2022/09/17 12:38:44;;;;;;;3.73;0.70;;;15.40;99.90;;;;;;6202112;23;20188;-67
2022/09/17 12:41:18;;;;;;;3.30;0.87;;;15.60;99.90;;;;;;6216041;23;20187;-69
2022/09/17 12:44:13;;;;;;;2.37;0.53;;;15.70;99.90;;;;;;6216492;23;20183;-70
2022/09/17 12:46:56;;;;;;;1.43;0.53;;;15.80;99.90;;;;;;6216793;23;20226;-69
2022/09/17 12:49:42;;;;;;;2.70;0.63;;;16.10;99.90;;;;;;6216621;23;20512;-70
2022/09/17 12:52:16;;;;;;;3.50;0.70;;;16.20;99.90;;;;;;6216210;23;20568;-71
2022/09/17 12:55:10;;;;;;;2.90;0.67;;;16.10;99.90;;;;;;6216047;23;20203;-67
2022/09/17 12:57:45;;;;;;;2.97;0.60;;;16.30;99.90;;;;;;6216394;23;20632;-67
2022/09/17 13:00:13;;;;;;;2.03;0.60;;;16.20;99.90;;;;;;6216417;23;20505;-73
2022/09/17 13:02:45;;;;;;;2.73;0.57;;;15.70;99.90;;;;;;6216596;23;20177;-67
2022/09/17 13:05:54;;;;;;;9.40;1.33;;;15.60;99.90;;;;;;6216407;23;20197;-69
2022/09/17 13:08:52;;;;;;;2.20;0.40;;;15.40;99.90;;;;;;6216651;23;20176;-70
2022/09/17 13:11:42;;;;;;;4.70;0.50;;;15.30;99.90;;;;;;6216559;23;20214;-69
2022/09/17 13:14:20;;;;;;;2.90;0.67;;;15.20;99.90;;;;;;6216132;23;20177;-68
2022/09/17 13:16:54;;;;;;;4.33;0.80;;;15.00;99.90;;;;;;6216376;23;20202;-67
2022/09/17 13:19:32;;;;;;;5.90;0.97;;;14.70;99.90;;;;;;6215820;23;20503;-69
2022/09/17 13:22:09;;;;;;;5.23;0.57;;;14.60;99.90;;;;;;6216309;23;20183;-68
2022/09/17 13:24:37;;;;;;;3.40;0.53;;;14.50;99.90;;;;;;6215882;23;20605;-69
2022/09/17 13:27:06;;;;;;;2.60;0.53;;;14.40;99.90;;;;;;6216337;23;20183;-74
2022/09/17 13:29:58;;;;;;;1.80;0.67;;;14.40;99.90;;;;;;6216106;23;20177;-70
2022/09/17 13:32:46;;;;;;;1.63;0.30;;;14.60;99.90;;;;;;6216114;23;20219;-71
2022/09/17 13:35:48;;;;;;;4.60;0.50;;;14.70;99.90;;;;;;6215443;23;20196;-70
2022/09/17 13:38:18;;;;;;;1.93;0.60;;;14.90;99.90;;;;;;6215418;23;20184;-67
2022/09/17 13:40:45;;;;;;;2.40;0.70;;;15.00;99.90;;;;;;6215839;23;20226;-67
2022/09/17 13:43:16;;;;;;;2.63;0.70;;;15.20;99.90;;;;;;6215810;23;20184;-65
2022/09/17 13:46:22;;;;;;;4.90;0.57;;;15.40;99.90;;;;;;6214771;23;20523;-67
2022/09/17 13:48:53;;;;;;;5.33;1.20;;;15.60;99.90;;;;;;6215131;23;20184;-67
2022/09/17 13:51:47;;;;;;;3.87;0.50;;;15.70;99.90;;;;;;6214620;23;20683;-68
2022/09/17 13:54:18;;;;;;;1.13;0.40;;;15.90;99.90;;;;;;6215014;23;20176;-67
2022/09/17 13:56:48;;;;;;;3.03;0.60;;;16.10;99.90;;;;;;6215425;23;20176;-67
2022/09/17 13:59:18;;;;;;;4.27;0.73;;;16.20;99.90;;;;;;6215500;23;20180;-67
2022/09/17 14:02:32;;;;;;;4.30;0.50;;;16.10;99.90;;;;;;6215399;23;20266;-66
2022/09/17 14:05:35;;;;;;;1.43;0.30;;;16.10;99.90;;;;;;6214930;23;20284;-66
2022/09/17 14:08:29;;;;;;;1.70;0.53;;;16.20;99.90;;;;;;6214665;23;20544;-68
2022/09/17 14:11:00;;;;;;;1.80;0.30;;;16.50;99.90;;;;;;6214674;23;20262;-69
2022/09/17 14:13:43;;;;;;;1.70;0.30;;;16.50;99.90;;;;;;6214921;23;20199;-69
2022/09/17 14:16:45;;;;;;;2.93;0.30;;;16.50;99.90;;;;;;6214767;23;20676;-70
2022/09/17 14:19:31;;;;;;;0.63;0.13;;;16.60;99.90;;;;;;6215423;23;20254;-69
2022/09/17 14:22:08;;;;;;;0.77;0.30;;;16.60;99.90;;;;;;6215458;23;20176;-67
2022/09/17 14:24:38;;;;;;;2.77;0.50;;;16.40;99.90;;;;;;6214048;23;20196;-70
2022/09/17 14:27:17;;;;;;;1.07;0.10;;;16.20;99.90;;;;;;6215522;23;20186;-68
2022/09/17 14:30:12;;;;;;;0.77;0.30;;;16.00;99.90;;;;;;6215614;23;20180;-68
2022/09/17 14:32:47;;;;;;;0.97;0.20;;;15.80;99.90;;;;;;6216215;23;20672;-69
2022/09/17 14:35:18;;;;;;;2.17;0.20;;;15.60;99.90;;;;;;6216412;23;20584;-71
2022/09/17 14:37:50;;;;;;;0.63;0.27;;;15.70;99.90;;;;;;6220219;22;20248;-74
2022/09/17 14:40:18;;;;;;;1.37;0.30;;;15.70;99.90;;;;;;6245484;23;20179;-74
2022/09/17 14:42:50;;;;;;;0.33;0.10;;;15.60;99.90;;;;;;6245720;23;20223;-76
2022/09/17 14:45:20;;;;;;;1.47;0.10;;;15.40;99.90;;;;;;6245923;23;20202;-76
2022/09/17 14:47:47;;;;;;;1.23;0.30;;;15.10;99.90;;;;;;6245794;23;20183;-74
2022/09/17 14:50:22;;;;;;;0.30;0.20;;;14.90;99.90;;;;;;6246013;23;20181;-77
2022/09/17 14:52:50;;;;;;;1.67;0.30;;;14.70;99.90;;;;;;6245766;23;20206;-75
2022/09/17 14:55:18;;;;;;;0.40;0.20;;;14.60;99.90;;;;;;6245774;23;20202;-79
2022/09/17 14:57:51;;;;;;;0.40;0.20;;;14.60;99.90;;;;;;6245822;23;20477;-78
2022/09/17 15:00:21;;;;;;;0.83;0.20;;;14.60;99.90;;;;;;6246119;23;20182;-79
2022/09/17 15:02:53;;;;;;;2.03;0.30;;;14.70;99.90;;;;;;6246005;23;20182;-73
2022/09/17 15:05:24;;;;;;;2.77;0.50;;;14.80;99.90;;;;;;6245722;23;20231;-75
2022/09/17 15:07:51;;;;;;;1.17;0.20;;;14.80;99.90;;;;;;6246059;23;20504;-76
2022/09/17 15:10:20;;;;;;;1.60;0.40;;;14.70;99.90;;;;;;6245841;23;20182;-78
2022/09/17 15:12:50;;;;;;;1.27;0.40;;;14.90;99.90;;;;;;6245592;23;20210;-69
2022/09/17 15:15:20;;;;;;;0.40;0.30;;;15.00;99.90;;;;;;6245873;23;20195;-78
2022/09/17 15:17:48;;;;;;;1.03;0.20;;;15.00;99.90;;;;;;6247674;23;20179;-74
2022/09/17 15:20:19;;;;;;;0.30;0.20;;;15.00;99.90;;;;;;6248110;23;20183;-77
2022/09/17 15:22:51;;;;;;;1.23;0.30;;;15.10;99.90;;;;;;6248064;23;20180;-71
2022/09/17 15:25:24;;;;;;;2.87;0.40;;;15.10;99.90;;;;;;6247726;23;20195;-74
2022/09/17 15:27:56;;;;;;;1.10;0.40;;;15.10;99.90;;;;;;6247002;23;20179;-68
2022/09/17 15:30:25;;;;;;;2.53;0.40;;;15.00;99.90;;;;;;6247397;23;20176;-74
2022/09/17 15:32:54;;;;;;;2.83;0.60;;;15.00;99.90;;;;;;6247270;23;20207;-78
2022/09/17 15:35:27;;;;;;;0.90;0.30;;;14.80;99.90;;;;;;6247256;23;20202;-76
2022/09/17 15:37:55;;;;;;;1.80;0.40;;;14.90;99.90;;;;;;6252808;22;20186;-74
2022/09/17 15:40:28;;;;;;;1.30;0.40;;;15.00;99.90;;;;;;6277984;22;20653;-73
2022/09/17 15:43:05;;;;;;;1.20;0.30;;;15.20;99.90;;;;;;6278375;22;20233;-71
2022/09/17 15:45:36;;;;;;;1.07;0.23;;;15.20;99.90;;;;;;6277789;22;20198;-70
2022/09/17 15:48:04;;;;;;;1.70;0.37;;;15.30;99.90;;;;;;6277952;22;20236;-74
2022/09/17 15:50:33;;;;;;;0.40;0.20;;;15.30;99.90;;;;;;6278179;22;20183;-75
2022/09/17 15:53:14;;;;;;;1.03;0.40;;;15.40;99.90;;;;;;6278292;22;20206;-70
2022/09/17 15:55:44;;;;;;;0.90;0.50;;;15.20;99.90;;;;;;6277984;22;20270;-68
2022/09/17 15:58:24;;;;;;;3.53;0.50;;;15.20;99.90;;;;;;6278113;22;20261;-70
2022/09/17 16:01:37;;;;;;;2.83;0.40;;;15.20;99.90;;;;;;6278164;22;20181;-70
2022/09/17 16:04:17;;;;;;;1.33;0.47;;;15.20;99.90;;;;;;6278105;22;20175;-75
2022/09/17 16:06:51;;;;;;;0.57;0.30;;;14.90;99.90;;;;;;6277889;22;20185;-70
2022/09/17 16:09:42;;;;;;;1.63;0.50;;;14.70;99.90;;;;;;6278008;22;20175;-73
2022/09/17 16:12:12;;;;;;;4.10;0.40;;;14.40;99.90;;;;;;6277825;22;20587;-69
2022/09/17 16:14:43;;;;;;;1.53;0.37;;;14.00;99.90;;;;;;6277756;22;20199;-76
2022/09/17 16:17:22;;;;;;;0.37;0.20;;;13.70;99.90;;;;;;6278096;22;20175;-71
2022/09/17 16:19:49;;;;;;;3.13;0.50;;;13.50;99.90;;;;;;6278024;22;20179;-71
2022/09/17 16:22:16;;;;;;;1.67;0.23;;;13.40;99.90;;;;;;6277572;22;20665;-72
2022/09/17 16:24:42;;;;;;;2.47;0.37;;;13.20;99.90;;;;;;6277543;22;20286;-71
2022/09/17 16:27:13;;;;;;;1.40;0.20;;;13.30;99.90;;;;;;6277968;22;20178;-69
2022/09/17 16:29:41;;;;;;;0.90;0.50;;;13.30;99.90;;;;;;6277955;22;20175;-71
2022/09/17 16:32:09;;;;;;;3.10;0.60;;;13.40;99.90;;;;;;6277774;22;20209;-68
2022/09/17 16:34:36;;;;;;;1.57;0.50;;;13.50;99.90;;;;;;6277359;22;20285;-76
2022/09/17 16:37:03;;;;;;;6.90;0.60;;;13.50;99.90;;;;;;6278198;22;20175;-69
2022/09/17 16:39:30;;;;;;;2.57;0.50;;;13.60;99.90;;;;;;6277240;22;20187;-68
2022/09/17 16:41:57;;;;;;;3.03;0.40;;;13.70;99.90;;;;;;6277205;22;20179;-71
2022/09/17 16:44:23;;;;;;;3.03;0.60;;;13.60;99.90;;;;;;6277595;22;20179;-75
2022/09/17 16:46:52;;;;;;;4.83;0.60;;;13.50;99.90;;;;;;6277568;22;20620;-74
2022/09/17 16:49:18;;;;;;;4.63;0.80;;;13.50;99.90;;;;;;6278218;22;20174;-68
2022/09/17 16:51:45;;;;;;;2.93;0.40;;;13.50;99.90;;;;;;6277735;22;20181;-70
2022/09/17 16:54:12;;;;;;;2.63;0.70;;;13.60;99.90;;;;;;6276910;22;20670;-73
2022/09/17 16:56:39;;;;;;;0.50;0.30;;;13.50;99.90;;;;;;6277482;22;20627;-72
2022/09/17 16:59:06;;;;;;;3.27;0.50;;;13.30;99.90;;;;;;6277633;22;20507;-77
2022/09/17 17:01:33;;;;;;;5.00;0.70;;;13.20;99.90;;;;;;6277365;22;20502;-76
2022/09/17 17:04:01;;;;;;;2.83;0.40;;;13.20;99.90;;;;;;6277663;22;20240;-74
2022/09/17 17:06:28;;;;;;;6.20;1.80;;;13.10;99.90;;;;;;6277443;22;20195;-71
2022/09/17 17:08:59;;;;;;;2.97;1.03;;;13.20;99.90;;;;;;6277187;22;20254;-76
2022/09/17 17:11:27;;;;;;;2.67;0.43;;;13.20;99.90;;;;;;6277801;22;20217;-70
2022/09/17 17:13:54;;;;;;;3.27;0.63;;;13.20;99.90;;;;;;6277930;22;20210;-75
2022/09/17 17:16:24;;;;;;;1.73;0.77;;;13.30;99.90;;;;;;6277846;22;20195;-77
2022/09/17 17:18:52;;;;;;;5.23;1.47;;;13.30;99.90;;;;;;6276996;22;20179;-77
2022/09/17 17:21:20;;;;;;;3.60;0.80;;;13.30;99.90;;;;;;6276964;22;20507;-72
2022/09/17 17:23:47;;;;;;;4.83;0.73;;;13.30;99.90;;;;;;6278038;22;20179;-71
2022/09/17 17:26:14;;;;;;;1.70;0.60;;;13.20;99.90;;;;;;6276862;22;20195;-73
2022/09/17 17:28:42;;;;;;;1.37;0.50;;;13.20;99.90;;;;;;6277241;22;20495;-73
2022/09/17 17:31:10;;;;;;;2.17;0.80;;;13.20;99.90;;;;;;6277149;22;20178;-71
2022/09/17 17:33:37;;;;;;;3.83;0.70;;;13.20;99.90;;;;;;6277319;22;20237;-71
2022/09/17 17:36:05;;;;;;;5.00;1.60;;;13.10;99.90;;;;;;6277270;22;20194;-75
2022/09/17 17:38:33;;;;;;;25.03;8.53;;;13.10;99.90;;;;;;6276834;22;20803;-70
2022/09/17 17:41:05;;;;;;;3.37;1.10;;;13.10;99.90;;;;;;6278706;22;20181;-74
2022/09/17 17:43:32;;;;;;;3.30;0.77;;;13.10;99.90;;;;;;6279208;22;20189;-75
2022/09/17 17:45:59;;;;;;;5.50;0.77;;;13.00;99.90;;;;;;6279301;22;20224;-75
2022/09/17 17:48:25;;;;;;;2.57;1.17;;;12.90;99.90;;;;;;6280280;22;20175;-76
2022/09/17 17:50:52;;;;;;;2.27;0.70;;;12.90;99.90;;;;;;6282375;22;20179;-78
2022/09/17 17:53:19;;;;;;;1.37;0.40;;;12.90;99.90;;;;;;6281502;22;20289;-77
2022/09/17 17:55:57;;;;;;;3.17;1.00;;;12.90;99.90;;;;;;6281145;22;20198;-78
2022/09/17 17:58:24;;;;;;;1.87;0.50;;;13.00;99.90;;;;;;6281564;22;20538;-76
2022/09/17 18:00:51;;;;;;;1.20;0.50;;;13.00;99.90;;;;;;6278783;22;20175;-76
2022/09/17 18:03:18;;;;;;;0.90;0.60;;;13.00;99.90;;;;;;6276705;22;20507;-75
2022/09/17 18:05:45;;;;;;;3.10;0.63;;;13.00;99.90;;;;;;6276978;22;20205;-69
2022/09/17 18:08:12;;;;;;;2.43;1.00;;;13.00;99.90;;;;;;6278329;22;20185;-76
2022/09/17 18:10:39;;;;;;;5.20;0.60;;;13.10;99.90;;;;;;6278098;22;20175;-77
2022/09/17 18:13:07;;;;;;;0.83;0.57;;;13.00;99.90;;;;;;6277073;22;20202;-71
2022/09/17 18:15:34;;;;;;;1.73;0.60;;;13.00;99.90;;;;;;6277018;22;20195;-73
2022/09/17 18:18:01;;;;;;;2.43;0.60;;;12.90;99.90;;;;;;6276890;22;20179;-76
2022/09/17 18:20:27;;;;;;;1.53;0.80;;;12.90;99.90;;;;;;6276437;22;20661;-73
2022/09/17 18:22:54;;;;;;;1.47;0.67;;;12.90;99.90;;;;;;6276466;22;20178;-75
2022/09/17 18:25:21;;;;;;;4.00;0.73;;;12.90;99.90;;;;;;6275838;22;20262;-71
2022/09/17 18:27:48;;;;;;;1.13;0.50;;;13.00;99.90;;;;;;6275706;22;20656;-76
2022/09/17 18:30:16;;;;;;;6.27;1.27;;;13.00;99.90;;;;;;6275865;22;20230;-72
2022/09/17 18:32:43;;;;;;;0.90;0.40;;;12.80;99.90;;;;;;6276163;22;20209;-75
2022/09/17 18:35:10;;;;;;;2.50;0.60;;;12.90;99.90;;;;;;6276258;22;20273;-70
2022/09/17 18:37:37;;;;;;;1.57;0.53;;;12.80;99.90;;;;;;6276296;22;20266;-74
2022/09/17 18:40:04;;;;;;;4.10;0.90;;;12.90;99.90;;;;;;6276462;22;20262;-76
2022/09/17 18:42:31;;;;;;;2.43;0.83;;;12.90;99.90;;;;;;6276504;22;20496;-75
2022/09/17 18:44:58;;;;;;;2.37;0.80;;;12.90;99.90;;;;;;6276324;22;20195;-72
2022/09/17 18:47:26;;;;;;;2.97;0.70;;;12.80;99.90;;;;;;6276606;22;20174;-77
2022/09/17 18:49:53;;;;;;;2.63;1.00;;;12.80;99.90;;;;;;6276522;22;20179;-71
2022/09/17 18:52:20;;;;;;;4.03;0.90;;;12.80;99.90;;;;;;6275907;22;20175;-74
2022/09/17 18:54:47;;;;;;;2.23;0.80;;;12.80;99.90;;;;;;6276174;22;20213;-74
2022/09/17 18:57:13;;;;;;;6.27;0.70;;;12.80;99.90;;;;;;6276510;22;20182;-73
2022/09/17 18:59:40;;;;;;;2.30;0.73;;;12.80;99.90;;;;;;6276652;22;20174;-69
2022/09/17 19:02:11;;;;;;;4.53;0.77;;;12.80;99.90;;;;;;6276349;22;20175;-74
2022/09/17 19:04:39;;;;;;;3.03;1.00;;;12.90;99.90;;;;;;6276358;22;20198;-70
2022/09/17 19:07:06;;;;;;;2.83;0.80;;;12.90;99.90;;;;;;6276196;22;20175;-71
2022/09/17 19:09:32;;;;;;;2.60;1.40;;;12.90;99.90;;;;;;6275838;22;20619;-76
2022/09/17 19:11:59;;;;;;;3.70;1.00;;;12.90;99.90;;;;;;6276746;22;20503;-73
2022/09/17 19:14:26;;;;;;;4.90;1.10;;;12.90;99.90;;;;;;6276134;22;20207;-72
2022/09/17 19:16:54;;;;;;;2.93;1.00;;;13.00;99.90;;;;;;6276185;22;20572;-73
2022/09/17 19:19:20;;;;;;;4.97;0.90;;;13.00;99.90;;;;;;6276143;22;20248;-72
2022/09/17 19:21:50;;;;;;;4.43;1.30;;;12.90;99.90;;;;;;6276155;22;20623;-73
2022/09/17 19:24:17;;;;;;;5.67;0.87;;;12.90;99.90;;;;;;6276397;22;20189;-74
2022/09/17 19:26:45;;;;;;;8.97;3.37;;;12.90;99.90;;;;;;6275841;22;20182;-75
2022/09/17 19:29:12;;;;;;;3.40;0.83;;;12.90;99.90;;;;;;6275982;22;20666;-73
2022/09/17 19:31:38;;;;;;;5.17;1.10;;;12.90;99.90;;;;;;6276319;22;20181;-74
2022/09/17 19:34:06;;;;;;;3.67;0.80;;;12.90;99.90;;;;;;6276331;22;20206;-68
2022/09/17 19:36:33;;;;;;;2.80;1.00;;;13.00;99.90;;;;;;6275988;22;20209;-70
2022/09/17 19:39:02;;;;;;;7.53;1.13;;;13.00;99.90;;;;;;6275985;22;20183;-70
2022/09/17 19:41:30;;;;;;;3.37;1.00;;;13.00;99.90;;;;;;6276294;22;20182;-72
2022/09/17 19:43:57;;;;;;;3.27;1.00;;;12.90;99.90;;;;;;6275845;22;20183;-75
2022/09/17 19:46:26;;;;;;;3.23;1.07;;;12.90;99.90;;;;;;6275464;22;20203;-69
2022/09/17 19:48:54;;;;;;;2.73;0.80;;;12.90;99.90;;;;;;6276477;22;20181;-67
2022/09/17 19:51:23;;;;;;;1.97;1.20;;;13.00;99.90;;;;;;6276518;22;20175;-73
2022/09/17 19:53:50;;;;;;;1.17;0.90;;;12.90;99.90;;;;;;6276201;22;20206;-67
2022/09/17 19:56:21;;;;;;;4.77;1.10;;;12.90;99.90;;;;;;6275969;22;20201;-69
2022/09/17 19:58:48;;;;;;;3.60;1.40;;;12.90;99.90;;;;;;6276428;22;20181;-72
2022/09/17 20:01:15;;;;;;;4.43;1.43;;;12.80;99.90;;;;;;6276204;22;20262;-73
2022/09/17 20:03:44;;;;;;;3.03;1.40;;;12.90;99.90;;;;;;6278135;22;20174;-74
2022/09/17 20:06:13;;;;;;;8.83;1.60;;;12.90;99.90;;;;;;6277952;22;20201;-68
2022/09/17 20:08:44;;;;;;;6.80;2.03;;;12.90;99.90;;;;;;6278459;22;20197;-74
2022/09/17 20:11:12;;;;;;;5.40;1.10;;;12.90;99.90;;;;;;6277592;22;20233;-74
2022/09/17 20:13:41;;;;;;;3.47;1.00;;;12.90;99.90;;;;;;6277636;22;20682;-73
2022/09/17 20:16:11;;;;;;;3.13;2.20;;;13.00;99.90;;;;;;6277538;22;20541;-73
2022/09/17 20:18:38;;;;;;;1.67;0.83;;;12.80;99.90;;;;;;6277591;22;20636;-73
2022/09/17 20:21:08;;;;;;;2.77;0.90;;;12.90;99.90;;;;;;6278050;22;20189;-70
2022/09/17 20:23:35;;;;;;;2.77;0.90;;;12.90;99.90;;;;;;6277776;22;20179;-70
2022/09/17 20:26:03;;;;;;;4.77;0.97;;;12.90;99.90;;;;;;6277767;22;20288;-72
2022/09/17 20:28:29;;;;;;;2.80;1.23;;;12.90;99.90;;;;;;6277922;22;20182;-68
2022/09/17 20:31:02;;;;;;;1.60;0.73;;;12.90;99.90;;;;;;6277427;22;20230;-71
2022/09/17 20:33:29;;;;;;;2.97;0.87;;;12.90;99.90;;;;;;6277937;22;20203;-74
2022/09/17 20:35:59;;;;;;;1.37;0.73;;;12.80;99.90;;;;;;6277576;22;20199;-69
2022/09/17 20:38:26;;;;;;;1.37;0.63;;;12.70;99.90;;;;;;6278119;22;20182;-71
2022/09/17 20:40:53;;;;;;;4.67;0.83;;;12.70;99.90;;;;;;6277440;22;20183;-67
2022/09/17 20:43:20;;;;;;;5.87;1.27;;;12.70;99.90;;;;;;6278003;22;20179;-71
2022/09/17 20:45:53;;;;;;;47.77;21.33;;;12.70;99.90;;;;;;6277808;22;20583;-67
2022/09/17 20:48:22;;;;;;;22.00;9.63;;;12.80;99.90;;;;;;6277351;22;20616;-71
2022/09/17 20:50:56;;;;;;;5.57;2.50;;;12.80;99.90;;;;;;6277102;22;20669;-70
2022/09/17 20:53:23;;;;;;;13.20;3.93;;;12.80;99.90;;;;;;6277267;22;20480;-69
2022/09/17 20:55:57;;;;;;;18.70;6.63;;;12.80;99.90;;;;;;6277610;22;20201;-73
2022/09/17 20:58:25;;;;;;;54.47;16.03;;;12.80;99.90;;;;;;6277360;22;20229;-69
2022/09/17 21:00:52;;;;;;;29.30;9.17;;;12.80;99.90;;;;;;6277602;22;20175;-74
2022/09/17 21:03:21;;;;;;;23.23;9.27;;;12.70;99.90;;;;;;6277685;22;20175;-69
2022/09/17 21:05:48;;;;;;;16.97;6.30;;;12.80;99.90;;;;;;6277508;22;20281;-68
2022/09/17 21:08:15;;;;;;;17.80;6.63;;;12.90;99.90;;;;;;6277233;22;20637;-76
2022/09/17 21:10:43;;;;;;;5.37;1.27;;;12.90;99.90;;;;;;6277343;22;20175;-69
2022/09/17 21:13:10;;;;;;;1.37;0.80;;;12.90;99.90;;;;;;6277024;22;20179;-73
2022/09/17 21:15:37;;;;;;;5.50;1.10;;;12.90;99.90;;;;;;6277282;22;20211;-72
2022/09/17 21:18:05;;;;;;;2.90;1.10;;;12.90;99.90;;;;;;6249901;22;20696;-68
2022/09/17 21:20:37;;;;;;;3.87;0.80;;;12.90;99.90;;;;;;6277219;22;20510;-68
2022/09/17 21:23:04;;;;;;;4.87;0.80;;;12.80;99.90;;;;;;6277229;22;20183;-71
2022/09/17 21:25:31;;;;;;;4.77;0.90;;;12.90;99.90;;;;;;6276600;22;20209;-74
2022/09/17 21:27:58;;;;;;;3.03;0.70;;;12.80;99.90;;;;;;6277281;22;20197;-70
2022/09/17 21:30:25;;;;;;;3.13;1.07;;;12.70;99.90;;;;;;6277336;22;20261;-72
2022/09/17 21:32:53;;;;;;;24.90;9.20;;;12.80;99.90;;;;;;6277081;22;20698;-74
2022/09/17 21:35:20;;;;;;;26.97;8.87;;;12.70;99.90;;;;;;6277161;22;20207;-74
2022/09/17 21:37:48;;;;;;;11.70;4.77;;;12.70;99.90;;;;;;6276900;22;20175;-68
2022/09/17 21:40:15;;;;;;;8.47;3.07;;;12.80;99.90;;;;;;6276718;22;20175;-68
